Decoded Metar for OITP (PARSABAD in IRAN) (IATA:N/A) | Meteo·Mobile Aviation Weather
aviador You're here:

OITP Decoded Metar

PARSABAD in IRAN
Report Time2018-10-21 20:00:00
UTC Time2018-10-21 20:38:51
Flight Rules vfr VFR
Wind120° at 04 kt
W.Decomp.*RWY 11: 4.0 kt HW 0.5 kt RCW
W.Rank120° ranks 2
Current wind is below 120° avg. (8.4)
Visibility9999 m
Phenomena:N/A
Clouds:N/A
Expected CloudBase > 400 ft AGL from Temp-Dew spread
CeilingNone
Temp15°C (ISA 0)
Dew Point14°C (94% RH)
AAT14.8°C
QNH1016 hPa
Density Alt423 ft
Elevation251 ft
Report Wrong Elevation
Raw Report
METAR OITP 212000Z 12004KT CAVOK 15/14 Q1016=

Extra information for OITP:More info

Metar Taf Metar & Taf Last 4 Metars F.Rules Stats Wind Profile Meteogram Temp Stats Airport Information Weather charts Add Link Nearby VenuesMetar ALERT Operation Metar Decoded Social comments